createdAt,value
2018-01-08T00:00:32.313Z,1010.54
2018-01-08T00:01:31.578Z,1010.58
2018-01-08T00:02:31.867Z,1010.59
2018-01-08T00:03:32.048Z,1010.62
2018-01-08T00:04:31.161Z,1010.62
2018-01-08T00:05:31.256Z,1010.61
2018-01-08T00:06:31.640Z,1010.63
2018-01-08T00:07:32.084Z,1010.56
2018-01-08T00:08:32.059Z,1010.59
2018-01-08T00:09:32.612Z,1010.6
2018-01-08T00:10:31.833Z,1010.59
2018-01-08T00:11:31.249Z,1010.63
2018-01-08T00:12:31.551Z,1010.62
2018-01-08T00:13:31.901Z,1010.65
2018-01-08T00:14:32.109Z,1010.58
2018-01-08T00:15:32.970Z,1010.62
2018-01-08T00:16:32.044Z,1010.61
2018-01-08T00:17:32.763Z,1010.55
2018-01-08T00:18:32.758Z,1010.62
2018-01-08T00:19:31.543Z,1010.64
2018-01-08T00:20:31.788Z,1010.62
2018-01-08T00:21:32.090Z,1010.63
2018-01-08T00:22:32.670Z,1010.6
2018-01-08T00:23:31.846Z,1010.65
2018-01-08T00:24:32.247Z,1010.54
2018-01-08T00:25:31.752Z,1010.55
2018-01-08T00:26:32.161Z,1010.56
2018-01-08T00:27:32.734Z,1010.58
2018-01-08T00:28:31.909Z,1010.59
2018-01-08T00:29:32.021Z,1010.57
2018-01-08T00:30:31.308Z,1010.6
2018-01-08T00:31:31.355Z,1010.61
2018-01-08T00:32:31.313Z,1010.55
2018-01-08T00:33:32.070Z,1010.58
2018-01-08T00:34:31.254Z,1010.59
2018-01-08T00:35:31.468Z,1010.62
2018-01-08T00:36:31.284Z,1010.54
2018-01-08T00:37:31.683Z,1010.52
2018-01-08T00:38:32.013Z,1010.51
2018-01-08T00:39:32.340Z,1010.53
2018-01-08T00:40:31.875Z,1010.48
2018-01-08T00:41:32.051Z,1010.42
2018-01-08T00:42:32.677Z,1010.44
2018-01-08T00:43:31.896Z,1010.42
2018-01-08T00:44:32.309Z,1010.42
2018-01-08T00:45:31.535Z,1010.4
2018-01-08T00:46:31.812Z,1010.45
2018-01-08T00:47:31.963Z,1010.43
2018-01-08T00:50:32.789Z,1010.48
2018-01-08T00:51:31.961Z,1010.4
2018-01-08T00:52:32.139Z,1010.44
2018-01-08T00:53:30.563Z,1010.47
2018-01-08T00:54:30.714Z,1010.47
2018-01-08T00:55:30.900Z,1010.51
2018-01-08T00:56:30.999Z,1010.46
2018-01-08T00:57:31.155Z,1010.5
2018-01-08T00:58:31.216Z,1010.51
2018-01-08T00:59:31.416Z,1010.49
2018-01-08T01:00:30.666Z,1010.45
2018-01-08T01:01:31.098Z,1010.48
2018-01-08T01:02:31.553Z,1010.46
2018-01-08T01:03:30.762Z,1010.49
2018-01-08T01:04:31.002Z,1010.48
2018-01-08T01:05:31.181Z,1010.5
2018-01-08T01:06:31.393Z,1010.48
2018-01-08T01:07:30.585Z,1010.48
2018-01-08T01:08:30.749Z,1010.44
2018-01-08T01:09:31.024Z,1010.48
2018-01-08T01:10:31.276Z,1010.49
2018-01-08T01:11:31.397Z,1010.52
2018-01-08T01:14:31.458Z,1010.52
2018-01-08T01:15:30.671Z,1010.52
2018-01-08T01:16:30.844Z,1010.53
2018-01-08T01:17:30.955Z,1010.5
2018-01-08T01:18:31.064Z,1010.5
2018-01-08T01:19:31.288Z,1010.49
2018-01-08T01:20:31.547Z,1010.48
2018-01-08T01:21:30.897Z,1010.49
2018-01-08T01:22:31.015Z,1010.48
2018-01-08T01:23:31.519Z,1010.51
2018-01-08T01:24:30.666Z,1010.47
2018-01-08T01:25:30.773Z,1010.48
2018-01-08T01:26:31.012Z,1010.52
2018-01-08T01:27:31.266Z,1010.48
2018-01-08T01:28:31.295Z,1010.45
2018-01-08T01:29:31.445Z,1010.48
2018-01-08T01:30:30.821Z,1010.51
2018-01-08T01:31:31.144Z,1010.47
2018-01-08T01:32:31.263Z,1010.52
2018-01-08T01:33:31.441Z,1010.5
2018-01-08T01:34:30.853Z,1010.44
2018-01-08T01:35:30.955Z,1010.47
2018-01-08T01:36:31.259Z,1010.47
2018-01-08T01:37:31.498Z,1010.49
2018-01-08T01:38:30.895Z,1010.43
2018-01-08T01:41:31.245Z,1010.53
2018-01-08T01:42:31.506Z,1010.51
2018-01-08T01:43:30.886Z,1010.51
2018-01-08T01:44:31.546Z,1010.56
2018-01-08T01:45:30.516Z,1010.54
2018-01-08T01:46:30.907Z,1010.49
2018-01-08T01:47:31.236Z,1010.48
2018-01-08T01:48:30.467Z,1010.48
2018-01-08T01:49:30.571Z,1010.48
2018-01-08T01:50:30.828Z,1010.5
2018-01-08T01:51:31.416Z,1010.44
2018-01-08T01:52:30.875Z,1010.48
2018-01-08T01:53:31.275Z,1010.47
2018-01-08T01:54:31.514Z,1010.45
2018-01-08T01:55:31.073Z,1010.48
2018-01-08T01:56:30.610Z,1010.5
2018-01-08T01:57:31.025Z,1010.49
2018-01-08T01:58:31.247Z,1010.48
2018-01-08T01:59:30.591Z,1010.5
2018-01-08T02:00:31.073Z,1010.53
2018-01-08T02:01:31.316Z,1010.54
2018-01-08T02:02:31.163Z,1010.53
2018-01-08T02:03:30.557Z,1010.61
2018-01-08T02:04:30.659Z,1010.56
2018-01-08T02:05:30.970Z,1010.54
2018-01-08T02:06:30.588Z,1010.56
2018-01-08T02:07:30.692Z,1010.58
2018-01-08T02:08:30.953Z,1010.59
2018-01-08T02:09:31.229Z,1010.6
2018-01-08T02:10:30.501Z,1010.55
2018-01-08T02:11:30.635Z,1010.59
2018-01-08T02:12:31.051Z,1010.63
2018-01-08T02:13:31.167Z,1010.69
2018-01-08T02:14:30.904Z,1010.67
2018-01-08T02:15:30.948Z,1010.67
2018-01-08T02:16:31.464Z,1010.64
2018-01-08T02:17:30.743Z,1010.65
2018-01-08T02:18:30.864Z,1010.63
2018-01-08T02:19:31.024Z,1010.66
2018-01-08T02:20:31.278Z,1010.68
2018-01-08T02:21:30.523Z,1010.68
2018-01-08T02:22:30.639Z,1010.66
2018-01-08T02:23:31.306Z,1010.77
2018-01-08T02:24:30.553Z,1010.7
2018-01-08T02:25:30.981Z,1010.66
2018-01-08T02:26:30.325Z,1010.62
2018-01-08T02:27:30.681Z,1010.66
2018-01-08T02:28:30.448Z,1010.65
2018-01-08T02:29:29.939Z,1010.63
2018-01-08T02:30:30.084Z,1010.59
2018-01-08T02:31:30.420Z,1010.63
2018-01-08T02:32:30.360Z,1010.65
2018-01-08T02:33:30.504Z,1010.64
2018-01-08T02:34:29.901Z,1010.65
2018-01-08T02:35:29.995Z,1010.66
2018-01-08T02:36:30.137Z,1010.69
2018-01-08T02:37:30.435Z,1010.69
2018-01-08T02:38:30.914Z,1010.66
2018-01-08T02:39:30.380Z,1010.64
2018-01-08T02:40:30.701Z,1010.64
2018-01-08T02:41:30.099Z,1010.65
2018-01-08T02:42:30.213Z,1010.64
2018-01-08T02:43:30.505Z,1010.73
2018-01-08T02:44:56.082Z,1010.7
2018-01-08T02:45:30.226Z,1010.68
2018-01-08T02:46:30.461Z,1010.77
2018-01-08T02:47:30.704Z,1010.71
2018-01-08T02:48:30.783Z,1010.7
2018-01-08T02:49:30.277Z,1010.75
2018-01-08T02:50:30.469Z,1010.73
2018-01-08T02:51:30.912Z,1010.71
2018-01-08T02:52:30.241Z,1010.7
2018-01-08T02:53:30.632Z,1010.72
2018-01-08T02:54:30.973Z,1010.75
2018-01-08T02:55:30.349Z,1010.75
2018-01-08T02:56:30.778Z,1010.73
2018-01-08T02:57:31.057Z,1010.66
2018-01-08T02:58:31.487Z,1010.73
2018-01-08T02:59:30.788Z,1010.68
2018-01-08T03:00:30.910Z,1010.7
2018-01-08T03:01:31.379Z,1010.73
2018-01-08T03:02:31.626Z,1010.71
2018-01-08T03:03:30.890Z,1010.75
2018-01-08T03:04:31.077Z,1010.8
2018-01-08T03:05:31.265Z,1010.81
2018-01-08T03:06:31.555Z,1010.84
2018-01-08T03:07:30.889Z,1010.9
2018-01-08T03:08:31.065Z,1010.92
2018-01-08T03:09:31.327Z,1010.9
2018-01-08T03:10:30.658Z,1010.94
2018-01-08T03:11:31.025Z,1010.94
2018-01-08T03:12:31.616Z,1010.91
2018-01-08T03:13:31.112Z,1010.88
2018-01-08T03:14:31.376Z,1010.89
2018-01-08T03:15:30.639Z,1010.86
2018-01-08T03:16:30.865Z,1010.82
2018-01-08T03:17:31.087Z,1010.86
2018-01-08T03:18:31.354Z,1010.92
2018-01-08T03:19:30.731Z,1010.89
2018-01-08T03:20:30.906Z,1010.91
2018-01-08T03:21:31.115Z,1010.9
2018-01-08T03:22:31.377Z,1010.93
2018-01-08T03:23:30.761Z,1010.9
2018-01-08T03:24:30.983Z,1010.93
2018-01-08T03:27:31.039Z,1010.93
2018-01-08T03:28:30.402Z,1011.03
2018-01-08T03:29:30.686Z,1010.98
2018-01-08T03:30:30.142Z,1010.98
2018-01-08T03:31:30.354Z,1011.03
2018-01-08T03:32:30.607Z,1010.93
2018-01-08T03:33:30.130Z,1010.96
2018-01-08T03:34:30.615Z,1010.97
2018-01-08T03:35:30.013Z,1010.98
2018-01-08T03:36:30.681Z,1010.95
2018-01-08T03:37:29.874Z,1010.95
2018-01-08T03:38:30.001Z,1010.91
2018-01-08T03:39:30.389Z,1010.89
2018-01-08T03:40:30.704Z,1010.88
2018-01-08T03:41:30.818Z,1010.86
2018-01-08T03:42:30.035Z,1010.88
2018-01-08T03:43:30.244Z,1010.89
2018-01-08T03:44:30.608Z,1010.89
2018-01-08T03:45:30.802Z,1010.9
2018-01-08T03:46:30.103Z,1010.89
2018-01-08T03:47:30.374Z,1010.88
2018-01-08T03:48:30.676Z,1010.88
2018-01-08T03:49:30.900Z,1010.94
2018-01-08T03:50:30.201Z,1010.9
2018-01-08T03:51:30.543Z,1010.93
2018-01-08T03:52:30.821Z,1010.95
2018-01-08T03:53:30.791Z,1010.97
2018-01-08T03:54:30.930Z,1011.01
2018-01-08T03:55:30.239Z,1011
2018-01-08T03:56:30.440Z,1011.01
2018-01-08T03:57:30.688Z,1011
2018-01-08T03:58:30.885Z,1011
2018-01-08T03:59:29.929Z,1011.02
2018-01-08T04:00:30.220Z,1010.99
2018-01-08T04:01:30.367Z,1011.01
2018-01-08T04:02:30.478Z,1010.97
2018-01-08T04:03:30.837Z,1010.97
2018-01-08T04:04:30.036Z,1010.92
2018-01-08T04:05:30.259Z,1010.9
2018-01-08T04:06:30.651Z,1010.9
2018-01-08T04:07:30.756Z,1010.9
2018-01-08T04:08:29.943Z,1010.82
2018-01-08T04:09:30.004Z,1010.87
2018-01-08T04:10:30.189Z,1010.8
2018-01-08T04:11:30.502Z,1010.81
2018-01-08T04:12:30.723Z,1010.76
2018-01-08T04:13:29.924Z,1010.77
2018-01-08T04:14:30.035Z,1010.78
2018-01-08T04:15:30.208Z,1010.81
2018-01-08T04:16:30.433Z,1010.77
2018-01-08T04:17:30.841Z,1010.74
2018-01-08T04:18:30.230Z,1010.77
2018-01-08T04:19:30.597Z,1010.73
2018-01-08T04:20:29.809Z,1010.8
2018-01-08T04:21:30.818Z,1010.82
2018-01-08T04:22:30.091Z,1010.75
2018-01-08T04:23:30.383Z,1010.81
2018-01-08T04:24:30.775Z,1010.75
2018-01-08T04:25:30.097Z,1010.79
2018-01-08T04:26:30.284Z,1010.78
2018-01-08T04:27:30.473Z,1010.77
2018-01-08T04:28:29.798Z,1010.82
2018-01-08T04:29:30.089Z,1010.77
2018-01-08T04:30:30.350Z,1010.79
2018-01-08T04:31:30.576Z,1010.71
2018-01-08T04:32:30.977Z,1010.79
2018-01-08T04:33:30.282Z,1010.77
2018-01-08T04:34:30.317Z,1010.76
2018-01-08T04:35:30.381Z,1010.83
2018-01-08T04:36:30.592Z,1010.85
2018-01-08T04:37:30.927Z,1010.8
2018-01-08T04:38:30.305Z,1010.82
2018-01-08T04:39:30.876Z,1010.84
2018-01-08T04:40:30.063Z,1010.85
2018-01-08T04:41:30.238Z,1010.85
2018-01-08T04:42:30.509Z,1010.87
2018-01-08T04:43:30.643Z,1010.88
2018-01-08T04:44:30.871Z,1010.88
2018-01-08T04:45:30.200Z,1010.84
2018-01-08T04:46:30.435Z,1010.87
2018-01-08T04:47:30.657Z,1010.84
2018-01-08T04:48:30.907Z,1010.82
2018-01-08T04:49:30.404Z,1010.79
2018-01-08T04:50:30.508Z,1010.76
2018-01-08T04:51:30.596Z,1010.8
2018-01-08T04:52:30.733Z,1010.74
2018-01-08T04:53:30.961Z,1010.78
2018-01-08T04:54:30.226Z,1010.8
2018-01-08T04:55:30.446Z,1010.82
2018-01-08T04:56:30.661Z,1010.84
2018-01-08T04:57:30.727Z,1010.88
2018-01-08T04:58:30.928Z,1010.96
2018-01-08T04:59:30.230Z,1010.9
2018-01-08T05:00:30.469Z,1010.97
2018-01-08T05:01:30.448Z,1010.93
2018-01-08T05:02:30.663Z,1010.97
2018-01-08T05:03:30.861Z,1010.96
2018-01-08T05:04:31.086Z,1010.92
2018-01-08T05:05:30.224Z,1010.92
2018-01-08T05:06:30.485Z,1010.97
2018-01-08T05:07:30.662Z,1010.96
2018-01-08T05:08:30.767Z,1010.97
2018-01-08T05:09:30.878Z,1011.03
2018-01-08T05:10:30.367Z,1011
2018-01-08T05:11:30.723Z,1011.01
2018-01-08T05:12:31.021Z,1011
2018-01-08T05:13:31.268Z,1010.97
2018-01-08T05:14:30.360Z,1010.99
2018-01-08T05:15:30.531Z,1010.98
2018-01-08T05:16:30.789Z,1010.93
2018-01-08T05:17:31.105Z,1010.95
2018-01-08T05:18:30.376Z,1010.93
2018-01-08T05:19:30.450Z,1010.89
2018-01-08T05:20:30.647Z,1010.89
2018-01-08T05:21:31.097Z,1010.86
2018-01-08T05:22:30.239Z,1010.85
2018-01-08T05:23:30.376Z,1010.86
2018-01-08T05:24:30.760Z,1010.91
2018-01-08T05:25:31.063Z,1010.9
2018-01-08T05:26:30.985Z,1010.88
2018-01-08T05:27:30.193Z,1010.86
2018-01-08T05:28:30.360Z,1010.89
2018-01-08T05:29:30.880Z,1010.88
2018-01-08T05:30:31.200Z,1010.86
2018-01-08T05:31:30.969Z,1010.81
2018-01-08T05:32:31.308Z,1010.75
2018-01-08T05:33:31.234Z,1010.78
2018-01-08T05:34:31.027Z,1010.83
2018-01-08T05:35:31.352Z,1010.83
2018-01-08T05:36:31.258Z,1010.8
2018-01-08T05:37:31.486Z,1010.75
2018-01-08T05:38:31.312Z,1010.82
2018-01-08T05:39:31.856Z,1010.8
2018-01-08T05:40:31.162Z,1010.78
2018-01-08T05:41:31.575Z,1010.77
2018-01-08T05:42:31.070Z,1010.79
2018-01-08T05:43:31.150Z,1010.79
2018-01-08T05:44:31.324Z,1010.8
2018-01-08T05:45:31.186Z,1010.71
2018-01-08T05:46:31.031Z,1010.76
2018-01-08T05:47:31.273Z,1010.71
2018-01-08T05:48:31.291Z,1010.74
2018-01-08T05:49:31.633Z,1010.77
2018-01-08T05:50:31.510Z,1010.79
2018-01-08T05:51:31.498Z,1010.76
2018-01-08T05:52:31.597Z,1010.78
2018-01-08T05:53:31.080Z,1010.8
2018-01-08T05:54:31.317Z,1010.81
2018-01-08T05:55:31.008Z,1010.72
2018-01-08T05:56:31.238Z,1010.82
2018-01-08T05:57:31.439Z,1010.79
2018-01-08T05:58:30.784Z,1010.87
2018-01-08T05:59:31.068Z,1010.82
2018-01-08T06:00:30.328Z,1010.83
2018-01-08T06:01:30.717Z,1010.85
2018-01-08T06:02:30.059Z,1010.9
2018-01-08T06:03:30.318Z,1010.87
2018-01-08T06:04:30.648Z,1010.95
2018-01-08T06:05:30.841Z,1010.96
2018-01-08T06:06:30.065Z,1010.92
2018-01-08T06:07:30.242Z,1010.85
2018-01-08T06:08:30.593Z,1010.91
2018-01-08T06:09:29.986Z,1010.85
2018-01-08T06:10:30.195Z,1010.89
2018-01-08T06:11:30.379Z,1010.86
2018-01-08T06:12:30.743Z,1010.82
2018-01-08T06:13:30.042Z,1010.79
2018-01-08T06:14:30.241Z,1010.82
2018-01-08T06:15:30.905Z,1010.78
2018-01-08T06:16:30.189Z,1010.79
2018-01-08T06:17:30.407Z,1010.79
2018-01-08T06:18:30.716Z,1010.77
2018-01-08T06:19:30.042Z,1010.77
2018-01-08T06:20:30.349Z,1010.77
2018-01-08T06:21:30.668Z,1010.76
2018-01-08T06:22:30.939Z,1010.8
2018-01-08T06:23:30.329Z,1010.82
2018-01-08T06:24:30.627Z,1010.73
2018-01-08T06:25:30.867Z,1010.77
2018-01-08T06:26:30.678Z,1010.75
2018-01-08T06:27:30.061Z,1010.75
2018-01-08T06:28:30.467Z,1010.73
2018-01-08T06:29:30.805Z,1010.82
2018-01-08T06:30:30.175Z,1010.77
2018-01-08T06:31:30.663Z,1010.76
2018-01-08T06:32:30.837Z,1010.75
2018-01-08T06:33:30.810Z,1010.73
2018-01-08T06:34:31.028Z,1010.72
2018-01-08T06:35:30.441Z,1010.78
2018-01-08T06:36:30.608Z,1010.73
2018-01-08T06:37:31.023Z,1010.74
2018-01-08T06:38:30.485Z,1010.69
2018-01-08T06:39:30.853Z,1010.71
2018-01-08T06:40:31.097Z,1010.61
2018-01-08T06:41:30.507Z,1010.63
2018-01-08T06:42:30.792Z,1010.7
2018-01-08T06:43:30.135Z,1010.64
2018-01-08T06:44:30.340Z,1010.73
2018-01-08T06:45:30.585Z,1010.71
2018-01-08T06:46:30.934Z,1010.67
2018-01-08T06:47:30.637Z,1010.68
2018-01-08T06:48:30.821Z,1010.69
2018-01-08T06:49:30.921Z,1010.65
2018-01-08T06:50:31.101Z,1010.64
2018-01-08T06:51:30.380Z,1010.63
2018-01-08T06:52:30.707Z,1010.62
2018-01-08T06:53:31.076Z,1010.58
2018-01-08T06:54:30.421Z,1010.55
2018-01-08T06:55:30.712Z,1010.57
2018-01-08T06:56:31.096Z,1010.54
2018-01-08T06:57:30.579Z,1010.55
2018-01-08T06:58:30.915Z,1010.58
2018-01-08T06:59:30.185Z,1010.58
2018-01-08T07:00:30.550Z,1010.62
2018-01-08T07:01:30.808Z,1010.64
2018-01-08T07:02:31.094Z,1010.58
2018-01-08T07:03:31.282Z,1010.6
2018-01-08T07:04:30.476Z,1010.61
2018-01-08T07:05:30.603Z,1010.58
2018-01-08T07:06:30.834Z,1010.59
2018-01-08T07:07:31.042Z,1010.62
2018-01-08T07:08:30.756Z,1010.64
2018-01-08T07:09:31.086Z,1010.62
2018-01-08T07:10:31.419Z,1010.62
2018-01-08T07:11:30.744Z,1010.68
2018-01-08T07:12:30.918Z,1010.63
2018-01-08T07:13:31.234Z,1010.65
2018-01-08T07:14:30.719Z,1010.66
2018-01-08T07:15:31.071Z,1010.7
2018-01-08T07:16:31.320Z,1010.72
2018-01-08T07:17:31.124Z,1010.75
2018-01-08T07:18:31.052Z,1010.76
2018-01-08T07:19:31.156Z,1010.89
2018-01-08T07:20:31.401Z,1010.78
2018-01-08T07:21:31.445Z,1010.76
2018-01-08T07:22:31.312Z,1010.8
2018-01-08T07:23:30.741Z,1010.78
2018-01-08T07:24:30.981Z,1010.72
2018-01-08T07:25:31.325Z,1010.83
2018-01-08T07:26:30.623Z,1010.88
2018-01-08T07:27:30.878Z,1010.84
2018-01-08T07:28:31.110Z,1010.9
2018-01-08T07:29:31.256Z,1010.91
2018-01-08T07:30:31.533Z,1010.92
2018-01-08T07:31:30.854Z,1010.94
2018-01-08T07:32:31.152Z,1010.96
2018-01-08T07:33:31.104Z,1010.95
2018-01-08T07:34:31.350Z,1010.93
2018-01-08T07:35:30.622Z,1010.9
2018-01-08T07:36:30.723Z,1010.86
2018-01-08T07:37:31.086Z,1010.89
2018-01-08T07:38:31.313Z,1010.9
2018-01-08T07:39:31.254Z,1010.88
2018-01-08T07:40:31.408Z,1010.91
2018-01-08T07:41:30.834Z,1010.86
2018-01-08T07:42:31.028Z,1010.88
2018-01-08T07:43:31.199Z,1010.86
2018-01-08T07:44:30.576Z,1010.91
2018-01-08T07:45:30.712Z,1010.89
2018-01-08T07:46:30.997Z,1010.91
2018-01-08T07:47:31.281Z,1010.88
2018-01-08T07:48:30.718Z,1010.93
2018-01-08T07:49:31.157Z,1010.87
2018-01-08T07:50:30.740Z,1010.84
2018-01-08T07:51:31.200Z,1010.91
2018-01-08T07:52:31.141Z,1010.9
2018-01-08T07:53:31.280Z,1010.9
2018-01-08T07:54:30.886Z,1010.87
2018-01-08T07:55:31.115Z,1010.94
2018-01-08T07:56:30.539Z,1010.92
2018-01-08T07:57:30.762Z,1011.01
2018-01-08T07:58:30.877Z,1011.05
2018-01-08T07:59:31.034Z,1011.04
2018-01-08T08:00:31.430Z,1011.05
2018-01-08T08:01:30.778Z,1011.09
2018-01-08T08:02:30.149Z,1011.12
2018-01-08T08:03:30.558Z,1011.12
2018-01-08T08:04:29.877Z,1011.09
2018-01-08T08:05:30.066Z,1011.03
2018-01-08T08:06:30.243Z,1011.06
2018-01-08T08:07:30.536Z,1011.13
2018-01-08T08:08:30.682Z,1011.12
2018-01-08T08:09:29.899Z,1011.1
2018-01-08T08:10:29.987Z,1011.07
2018-01-08T08:11:30.175Z,1011.15
2018-01-08T08:12:30.677Z,1011.18
2018-01-08T08:13:29.911Z,1011.14
2018-01-08T08:14:30.122Z,1011.15
2018-01-08T08:15:30.495Z,1011.15
2018-01-08T08:16:30.654Z,1011.17
2018-01-08T08:17:29.923Z,1011.17
2018-01-08T08:18:30.261Z,1011.09
2018-01-08T08:19:30.608Z,1011.11
2018-01-08T08:20:29.909Z,1011.1
2018-01-08T08:21:30.185Z,1011.11
2018-01-08T08:22:30.544Z,1011.17
2018-01-08T08:23:30.009Z,1011.15
2018-01-08T08:24:30.155Z,1011.11
2018-01-08T08:25:30.390Z,1011.16
2018-01-08T08:26:30.772Z,1011.14
2018-01-08T08:27:30.381Z,1011.15
2018-01-08T08:28:29.874Z,1011.23
2018-01-08T08:29:30.178Z,1011.18
2018-01-08T08:30:30.309Z,1011.18
2018-01-08T08:31:30.447Z,1011.22
2018-01-08T08:32:30.660Z,1011.26
2018-01-08T08:33:30.773Z,1011.24
2018-01-08T08:34:31.183Z,1011.32
2018-01-08T08:35:31.538Z,1011.27
2018-01-08T08:36:30.758Z,1011.28
2018-01-08T08:37:30.876Z,1011.25
2018-01-08T08:38:30.980Z,1011.24
2018-01-08T08:39:31.392Z,1011.29
2018-01-08T08:40:30.770Z,1011.32
2018-01-08T08:41:30.981Z,1011.25
2018-01-08T08:42:31.199Z,1011.25
2018-01-08T08:43:31.331Z,1011.24
2018-01-08T08:44:31.395Z,1011.28
2018-01-08T08:45:31.300Z,1011.25
2018-01-08T08:46:31.465Z,1011.21
2018-01-08T08:47:30.948Z,1011.24
2018-01-08T08:48:31.274Z,1011.25
2018-01-08T08:49:31.096Z,1011.24
2018-01-08T08:50:31.371Z,1011.21
2018-01-08T08:51:31.632Z,1011.22
2018-01-08T08:52:31.179Z,1011.18
2018-01-08T08:53:31.402Z,1011.15
2018-01-08T08:54:30.972Z,1011.13
2018-01-08T08:55:31.252Z,1011.18
2018-01-08T08:56:31.007Z,1011.16
2018-01-08T08:57:31.343Z,1011.17
2018-01-08T08:58:30.913Z,1011.14
2018-01-08T08:59:31.165Z,1011.12
2018-01-08T09:00:31.406Z,1011.06
2018-01-08T09:01:31.143Z,1011.11
2018-01-08T09:02:31.489Z,1011.09
2018-01-08T09:03:30.921Z,1011.07
2018-01-08T09:04:31.174Z,1011.12
2018-01-08T09:05:31.270Z,1011.09
2018-01-08T09:06:30.786Z,1011.13
2018-01-08T09:07:31.006Z,1011.08
2018-01-08T09:08:31.089Z,1011.09
2018-01-08T09:09:31.169Z,1011.1
2018-01-08T09:10:31.305Z,1011.07
2018-01-08T09:11:30.452Z,1011.04
2018-01-08T09:12:30.780Z,1011.09
2018-01-08T09:13:31.084Z,1011.14
2018-01-08T09:14:31.590Z,1011.18
2018-01-08T09:15:30.899Z,1011.13
2018-01-08T09:16:31.203Z,1011.17
2018-01-08T09:17:31.479Z,1011.08
2018-01-08T09:18:30.831Z,1011.14
2018-01-08T09:19:31.063Z,1011.16
2018-01-08T09:20:31.480Z,1011.16
2018-01-08T09:21:31.404Z,1011.13
2018-01-08T09:22:30.739Z,1011.16
2018-01-08T09:23:30.826Z,1011.16
2018-01-08T09:24:31.000Z,1011.18
2018-01-08T09:25:31.123Z,1011.18
2018-01-08T09:26:31.401Z,1011.16
2018-01-08T09:27:30.950Z,1011.17
2018-01-08T09:28:31.191Z,1011.15
2018-01-08T09:29:30.844Z,1011.11
2018-01-08T09:30:31.145Z,1011.17
2018-01-08T09:31:31.445Z,1011.15
2018-01-08T09:32:30.851Z,1011.11
2018-01-08T09:33:31.243Z,1011.09
2018-01-08T09:34:30.391Z,1011.01
2018-01-08T09:35:30.680Z,1011.05
2018-01-08T09:36:30.905Z,1011.07
2018-01-08T09:37:30.228Z,1011.1
2018-01-08T09:38:30.649Z,1011.03
2018-01-08T09:39:30.913Z,1011.11
2018-01-08T09:40:30.253Z,1011.11
2018-01-08T09:41:30.616Z,1011.12
2018-01-08T09:42:31.125Z,1011.1
2018-01-08T09:43:30.711Z,1011.15
2018-01-08T09:44:31.161Z,1011.12
2018-01-08T09:45:30.642Z,1011.12
2018-01-08T09:46:30.905Z,1011.19
2018-01-08T09:47:30.295Z,1011.2
2018-01-08T09:48:30.476Z,1011.13
2018-01-08T09:49:31.064Z,1011.15
2018-01-08T09:50:30.166Z,1011.08
2018-01-08T09:51:30.460Z,1011.01
2018-01-08T09:52:30.933Z,1011.11
2018-01-08T09:53:30.372Z,1010.99
2018-01-08T09:54:30.633Z,1010.93
2018-01-08T09:55:31.010Z,1010.9
2018-01-08T09:56:30.355Z,1010.94
2018-01-08T09:57:30.603Z,1010.93
2018-01-08T09:58:30.917Z,1010.86
2018-01-08T09:59:30.481Z,1010.84
2018-01-08T10:00:30.878Z,1010.88
2018-01-08T10:01:31.508Z,1010.86
2018-01-08T10:02:30.855Z,1010.84
2018-01-08T10:03:30.336Z,1010.86
2018-01-08T10:04:30.844Z,1010.89
2018-01-08T10:05:30.234Z,1010.88
2018-01-08T10:06:31.100Z,1010.93
2018-01-08T10:07:30.126Z,1010.89
2018-01-08T10:08:30.276Z,1010.89
2018-01-08T10:09:30.523Z,1010.92
2018-01-08T10:10:30.000Z,1010.92
2018-01-08T10:11:30.360Z,1010.91
2018-01-08T10:12:30.810Z,1010.94
2018-01-08T10:13:30.214Z,1011.04
2018-01-08T10:14:30.719Z,1010.97
2018-01-08T10:15:30.113Z,1011.02
2018-01-08T10:16:30.459Z,1010.98
2018-01-08T10:17:31.065Z,1010.9
2018-01-08T10:18:30.499Z,1010.92
2018-01-08T10:19:29.890Z,1010.83
2018-01-08T10:20:30.216Z,1010.9
2018-01-08T10:21:29.802Z,1010.87
2018-01-08T10:22:30.028Z,1010.86
2018-01-08T10:23:30.385Z,1010.93
2018-01-08T10:24:30.825Z,1010.9
2018-01-08T10:25:30.172Z,1010.87
2018-01-08T10:26:30.428Z,1010.87
2018-01-08T10:27:29.916Z,1010.94
2018-01-08T10:28:30.023Z,1010.83
2018-01-08T10:29:55.696Z,1010.9
2018-01-08T10:30:29.997Z,1010.87
2018-01-08T10:31:30.407Z,1010.81
2018-01-08T10:32:29.923Z,1010.81
2018-01-08T10:33:30.176Z,1010.78
2018-01-08T10:34:30.396Z,1010.86
2018-01-08T10:35:30.593Z,1010.91
2018-01-08T10:36:30.992Z,1010.92
2018-01-08T10:37:31.446Z,1010.86
2018-01-08T10:38:30.682Z,1010.82
2018-01-08T10:39:30.877Z,1010.78
2018-01-08T10:40:31.308Z,1010.79
2018-01-08T10:41:30.827Z,1010.85
2018-01-08T10:42:31.378Z,1010.75
2018-01-08T10:43:31.079Z,1010.81
2018-01-08T10:44:31.366Z,1010.73
2018-01-08T10:45:30.624Z,1010.74
2018-01-08T10:46:30.903Z,1010.73
2018-01-08T10:47:31.154Z,1010.79
2018-01-08T10:48:31.670Z,1010.83
2018-01-08T10:49:30.833Z,1010.8
2018-01-08T10:50:31.309Z,1010.76
2018-01-08T10:51:30.685Z,1010.75
2018-01-08T10:52:31.008Z,1010.78
2018-01-08T10:53:31.708Z,1010.78
2018-01-08T10:54:31.336Z,1010.75
2018-01-08T10:55:30.844Z,1010.76
2018-01-08T10:56:31.346Z,1010.77
2018-01-08T10:57:30.959Z,1010.77
2018-01-08T10:58:31.329Z,1010.75
2018-01-08T10:59:30.812Z,1010.72
2018-01-08T11:00:31.358Z,1010.79
2018-01-08T11:01:30.731Z,1010.75
2018-01-08T11:02:31.053Z,1010.72
2018-01-08T11:03:31.584Z,1010.76
2018-01-08T11:04:30.962Z,1010.73
2018-01-08T11:05:31.764Z,1010.72
2018-01-08T11:06:31.272Z,1010.73
2018-01-08T11:07:31.725Z,1010.72
2018-01-08T11:08:31.535Z,1010.75
2018-01-08T11:09:30.987Z,1010.71
2018-01-08T11:10:31.530Z,1010.68
2018-01-08T11:11:30.929Z,1010.67
2018-01-08T11:12:31.249Z,1010.64
2018-01-08T11:13:31.065Z,1010.68
2018-01-08T11:14:31.501Z,1010.67
2018-01-08T11:15:30.885Z,1010.63
2018-01-08T11:16:31.456Z,1010.62
2018-01-08T11:17:30.747Z,1010.59
2018-01-08T11:18:31.401Z,1010.54
2018-01-08T11:19:30.715Z,1010.56
2018-01-08T11:20:31.016Z,1010.55
2018-01-08T11:21:31.236Z,1010.41
2018-01-08T11:22:31.149Z,1010.39
2018-01-08T11:23:31.064Z,1010.41
2018-01-08T11:24:31.760Z,1010.35
2018-01-08T11:25:31.162Z,1010.38
2018-01-08T11:26:30.911Z,1010.34
2018-01-08T11:27:31.404Z,1010.29
2018-01-08T11:28:30.795Z,1010.28
2018-01-08T11:29:31.331Z,1010.26
2018-01-08T11:30:31.613Z,1010.23
2018-01-08T11:31:30.965Z,1010.16
2018-01-08T11:32:31.275Z,1010.19
2018-01-08T11:33:31.722Z,1010.19
2018-01-08T11:34:31.247Z,1010.17
2018-01-08T11:35:30.745Z,1010.12
2018-01-08T11:36:31.248Z,1010.11
2018-01-08T11:37:31.205Z,1010.09
2018-01-08T11:38:30.520Z,1010.1
2018-01-08T11:39:31.888Z,1010.07
2018-01-08T11:40:30.178Z,1010.08
2018-01-08T11:41:30.385Z,1010.05
2018-01-08T11:42:30.636Z,1010.14
2018-01-08T11:43:30.880Z,1010.08
2018-01-08T11:44:30.193Z,1010.1
2018-01-08T11:45:30.504Z,1010.16
2018-01-08T11:46:30.717Z,1010.06
2018-01-08T11:47:31.046Z,1010.05
2018-01-08T11:48:30.563Z,1010.03
2018-01-08T11:49:30.965Z,1009.94
2018-01-08T11:50:30.237Z,1009.99
2018-01-08T11:51:30.461Z,1009.97
2018-01-08T11:52:30.659Z,1009.92
2018-01-08T11:53:30.846Z,1009.99
2018-01-08T11:54:31.162Z,1009.95
2018-01-08T11:55:30.518Z,1009.97
2018-01-08T11:56:30.614Z,1010
2018-01-08T11:57:30.934Z,1009.99
2018-01-08T11:58:30.210Z,1009.95
2018-01-08T11:59:30.585Z,1009.88
2018-01-08T12:00:31.021Z,1009.87
2018-01-08T12:01:30.421Z,1009.81
2018-01-08T12:02:30.625Z,1009.83
2018-01-08T12:03:30.921Z,1009.77
2018-01-08T12:04:31.069Z,1009.79
2018-01-08T12:05:30.315Z,1009.85
2018-01-08T12:06:30.458Z,1009.77
2018-01-08T12:07:31.000Z,1009.7
2018-01-08T12:08:30.198Z,1009.69
2018-01-08T12:09:30.533Z,1009.64
2018-01-08T12:10:30.304Z,1009.68
2018-01-08T12:11:30.752Z,1009.61
2018-01-08T12:12:30.156Z,1009.65
2018-01-08T12:13:30.483Z,1009.61
2018-01-08T12:14:30.796Z,1009.62
2018-01-08T12:15:30.290Z,1009.55
2018-01-08T12:16:30.684Z,1009.65